sensor_id;sensor_type;location;lat;lon;timestamp;pressure;altitude;pressure_sealevel;temperature;humidity
50790;BME280;37287;47.554;7.844;2023-04-30T00:01:39;97987.38;;;10.94;100.00
50790;BME280;37287;47.554;7.844;2023-04-30T00:04:06;97985.34;;;10.84;100.00
50790;BME280;37287;47.554;7.844;2023-04-30T00:06:32;97986.47;;;10.79;100.00
50790;BME280;37287;47.554;7.844;2023-04-30T00:08:59;97984.34;;;10.58;100.00
50790;BME280;37287;47.554;7.844;2023-04-30T00:11:26;97990.13;;;10.57;100.00
50790;BME280;37287;47.554;7.844;2023-04-30T00:13:54;97983.28;;;10.70;100.00
50790;BME280;37287;47.554;7.844;2023-04-30T00:16:22;97990.94;;;10.61;100.00
50790;BME280;37287;47.554;7.844;2023-04-30T00:18:49;97989.81;;;10.62;100.00
50790;BME280;37287;47.554;7.844;2023-04-30T00:21:15;97997.00;;;10.47;100.00
50790;BME280;37287;47.554;7.844;2023-04-30T00:23:44;97986.00;;;10.32;100.00
50790;BME280;37287;47.554;7.844;2023-04-30T00:26:11;97982.97;;;10.38;100.00
50790;BME280;37287;47.554;7.844;2023-04-30T00:28:37;97988.72;;;10.32;100.00
50790;BME280;37287;47.554;7.844;2023-04-30T00:31:04;97989.00;;;10.24;100.00
50790;BME280;37287;47.554;7.844;2023-04-30T00:33:36;97988.19;;;10.20;100.00
50790;BME280;37287;47.554;7.844;2023-04-30T00:36:07;97984.34;;;10.24;100.00
50790;BME280;37287;47.554;7.844;2023-04-30T00:38:34;97987.50;;;10.30;100.00
50790;BME280;37287;47.554;7.844;2023-04-30T00:41:00;97991.88;;;10.04;100.00
50790;BME280;37287;47.554;7.844;2023-04-30T00:43:29;97985.41;;;9.82;100.00
50790;BME280;37287;47.554;7.844;2023-04-30T00:45:56;97973.78;;;9.78;100.00
50790;BME280;37287;47.554;7.844;2023-04-30T00:48:24;97974.78;;;9.96;100.00
50790;BME280;37287;47.554;7.844;2023-04-30T00:50:52;97969.09;;;10.05;100.00
50790;BME280;37287;47.554;7.844;2023-04-30T00:53:18;97959.81;;;10.06;100.00
50790;BME280;37287;47.554;7.844;2023-04-30T00:55:47;97966.84;;;10.11;100.00
50790;BME280;37287;47.554;7.844;2023-04-30T00:58:15;97967.22;;;10.13;100.00
50790;BME280;37287;47.554;7.844;2023-04-30T01:00:42;97964.91;;;10.11;100.00
50790;BME280;37287;47.554;7.844;2023-04-30T01:03:12;97966.47;;;10.12;100.00
50790;BME280;37287;47.554;7.844;2023-04-30T01:05:41;97957.56;;;10.12;100.00
50790;BME280;37287;47.554;7.844;2023-04-30T01:08:09;97954.06;;;10.11;100.00
50790;BME280;37287;47.554;7.844;2023-04-30T01:13:35;97946.28;;;10.06;100.00
50790;BME280;37287;47.554;7.844;2023-04-30T01:18:41;97941.31;;;10.08;100.00
50790;BME280;37287;47.554;7.844;2023-04-30T01:21:10;97947.78;;;10.04;100.00
50790;BME280;37287;47.554;7.844;2023-04-30T01:23:58;97943.19;;;10.04;100.00
50790;BME280;37287;47.554;7.844;2023-04-30T01:29:35;97939.38;;;10.09;100.00
50790;BME280;37287;47.554;7.844;2023-04-30T01:32:02;97939.00;;;10.10;100.00
50790;BME280;37287;47.554;7.844;2023-04-30T01:34:29;97940.13;;;10.09;100.00
50790;BME280;37287;47.554;7.844;2023-04-30T01:40:21;97938.53;;;10.01;100.00
50790;BME280;37287;47.554;7.844;2023-04-30T01:43:04;97939.69;;;10.04;100.00
50790;BME280;37287;47.554;7.844;2023-04-30T01:48:44;97946.63;;;10.01;100.00
50790;BME280;37287;47.554;7.844;2023-04-30T01:53:44;97948.34;;;10.17;100.00
50790;BME280;37287;47.554;7.844;2023-04-30T01:56:17;97946.34;;;10.13;100.00
50790;BME280;37287;47.554;7.844;2023-04-30T01:58:48;97947.16;;;10.14;100.00
50790;BME280;37287;47.554;7.844;2023-04-30T02:01:28;97941.69;;;10.10;100.00
50790;BME280;37287;47.554;7.844;2023-04-30T02:03:59;97943.19;;;10.04;100.00
50790;BME280;37287;47.554;7.844;2023-04-30T02:06:26;97945.53;;;10.06;100.00
50790;BME280;37287;47.554;7.844;2023-04-30T02:08:54;97938.16;;;10.03;100.00
50790;BME280;37287;47.554;7.844;2023-04-30T02:11:22;97947.78;;;10.04;100.00
50790;BME280;37287;47.554;7.844;2023-04-30T02:13:50;97940.09;;;10.06;100.00
50790;BME280;37287;47.554;7.844;2023-04-30T02:16:16;97945.81;;;9.97;100.00
50790;BME280;37287;47.554;7.844;2023-04-30T02:18:43;97941.16;;;9.94;100.00
50790;BME280;37287;47.554;7.844;2023-04-30T02:21:11;97947.28;;;9.91;100.00
50790;BME280;37287;47.554;7.844;2023-04-30T02:23:37;97937.69;;;9.97;100.00
50790;BME280;37287;47.554;7.844;2023-04-30T02:26:05;97936.63;;;10.05;100.00
50790;BME280;37287;47.554;7.844;2023-04-30T02:28:32;97938.16;;;10.06;100.00
50790;BME280;37287;47.554;7.844;2023-04-30T02:30:59;97940.88;;;10.06;100.00
50790;BME280;37287;47.554;7.844;2023-04-30T02:33:32;97943.59;;;10.06;100.00
50790;BME280;37287;47.554;7.844;2023-04-30T02:35:59;97937.44;;;10.09;100.00
50790;BME280;37287;47.554;7.844;2023-04-30T02:38:26;97942.03;;;10.05;100.00
50790;BME280;37287;47.554;7.844;2023-04-30T02:40:54;97939.72;;;10.07;100.00
50790;BME280;37287;47.554;7.844;2023-04-30T02:43:21;97938.66;;;10.15;100.00
50790;BME280;37287;47.554;7.844;2023-04-30T02:45:48;97929.72;;;10.11;100.00
50790;BME280;37287;47.554;7.844;2023-04-30T02:48:21;97932.84;;;10.13;100.00
50790;BME280;37287;47.554;7.844;2023-04-30T02:50:48;97931.66;;;10.11;100.00
50790;BME280;37287;47.554;7.844;2023-04-30T02:53:14;97932.06;;;10.13;100.00
50790;BME280;37287;47.554;7.844;2023-04-30T02:55:43;97932.47;;;10.15;100.00
50790;BME280;37287;47.554;7.844;2023-04-30T02:58:09;97939.06;;;10.18;100.00
50790;BME280;37287;47.554;7.844;2023-04-30T03:00:36;97932.13;;;10.17;100.00
50790;BME280;37287;47.554;7.844;2023-04-30T03:03:04;97933.19;;;10.08;100.00
50790;BME280;37287;47.554;7.844;2023-04-30T03:05:31;97935.44;;;10.03;100.00
50790;BME280;37287;47.554;7.844;2023-04-30T03:07:59;97935.38;;;9.99;100.00
50790;BME280;37287;47.554;7.844;2023-04-30T03:10:31;97933.38;;;9.92;100.00
50790;BME280;37287;47.554;7.844;2023-04-30T03:12:58;97934.63;;;9.98;100.00
50790;BME280;37287;47.554;7.844;2023-04-30T03:15:24;97934.25;;;10.00;100.00
50790;BME280;37287;47.554;7.844;2023-04-30T03:17:51;97932.75;;;10.06;100.00
50790;BME280;37287;47.554;7.844;2023-04-30T03:20:18;97931.56;;;10.04;100.00
50790;BME280;37287;47.554;7.844;2023-04-30T03:22:44;97928.41;;;9.94;100.00
50790;BME280;37287;47.554;7.844;2023-04-30T03:25:11;97931.03;;;9.91;100.00
50790;BME280;37287;47.554;7.844;2023-04-30T03:27:37;97935.63;;;9.87;100.00
50790;BME280;37287;47.554;7.844;2023-04-30T03:30:04;97933.34;;;9.89;100.00
50790;BME280;37287;47.554;7.844;2023-04-30T03:32:35;97929.97;;;9.99;100.00
50790;BME280;37287;47.554;7.844;2023-04-30T03:35:01;97925.69;;;9.94;100.00
50790;BME280;37287;47.554;7.844;2023-04-30T03:37:27;97934.13;;;9.89;100.00
50790;BME280;37287;47.554;7.844;2023-04-30T03:39:54;97926.72;;;9.83;100.00
50790;BME280;37287;47.554;7.844;2023-04-30T03:42:21;97919.06;;;9.88;100.00
50790;BME280;37287;47.554;7.844;2023-04-30T03:44:49;97923.28;;;9.86;100.00
50790;BME280;37287;47.554;7.844;2023-04-30T03:47:24;97924.91;;;9.94;100.00
50790;BME280;37287;47.554;7.844;2023-04-30T03:49:50;97916.72;;;9.87;100.00
50790;BME280;37287;47.554;7.844;2023-04-30T03:52:21;97925.19;;;9.85;100.00
50790;BME280;37287;47.554;7.844;2023-04-30T03:54:57;97921.78;;;9.88;100.00
50790;BME280;37287;47.554;7.844;2023-04-30T03:57:23;97913.66;;;9.88;100.00
50790;BME280;37287;47.554;7.844;2023-04-30T03:59:50;97926.72;;;9.83;100.00
50790;BME280;37287;47.554;7.844;2023-04-30T04:02:17;97930.22;;;9.87;100.00
50790;BME280;37287;47.554;7.844;2023-04-30T04:04:45;97930.72;;;9.96;100.00
50790;BME280;37287;47.554;7.844;2023-04-30T04:07:14;97929.97;;;9.99;100.00
50790;BME280;37287;47.554;7.844;2023-04-30T04:09:43;97926.13;;;10.00;100.00
50790;BME280;37287;47.554;7.844;2023-04-30T04:12:09;97929.22;;;10.02;100.00
50790;BME280;37287;47.554;7.844;2023-04-30T04:14:39;97928.34;;;9.91;100.00
50790;BME280;37287;47.554;7.844;2023-04-30T04:17:08;97930.88;;;9.76;100.00
50790;BME280;37287;47.554;7.844;2023-04-30T04:19:35;97929.81;;;9.85;100.00
50790;BME280;37287;47.554;7.844;2023-04-30T04:22:01;97933.75;;;9.91;100.00
50790;BME280;37287;47.554;7.844;2023-04-30T04:24:32;97939.25;;;9.98;100.00
50790;BME280;37287;47.554;7.844;2023-04-30T04:26:59;97931.50;;;9.96;100.00
50790;BME280;37287;47.554;7.844;2023-04-30T04:29:27;97928.47;;;10.02;100.00
50790;BME280;37287;47.554;7.844;2023-04-30T04:31:55;97928.09;;;10.03;100.00
50790;BME280;37287;47.554;7.844;2023-04-30T04:34:21;97926.53;;;10.02;100.00
50790;BME280;37287;47.554;7.844;2023-04-30T04:36:48;97928.53;;;10.05;100.00
50790;BME280;37287;47.554;7.844;2023-04-30T04:39:19;97925.06;;;10.08;100.00
50790;BME280;37287;47.554;7.844;2023-04-30T04:41:45;97925.47;;;10.10;100.00
50790;BME280;37287;47.554;7.844;2023-04-30T04:44:12;97936.34;;;10.18;100.00
50790;BME280;37287;47.554;7.844;2023-04-30T04:46:40;97923.25;;;10.20;100.00
50790;BME280;37287;47.554;7.844;2023-04-30T04:49:11;97924.44;;;10.22;100.00
50790;BME280;37287;47.554;7.844;2023-04-30T04:51:38;97921.38;;;10.24;100.00
50790;BME280;37287;47.554;7.844;2023-04-30T04:54:16;97934.97;;;10.31;100.00
50790;BME280;37287;47.554;7.844;2023-04-30T04:56:44;97925.97;;;10.23;100.00
50790;BME280;37287;47.554;7.844;2023-04-30T04:59:11;97919.50;;;10.31;100.00
50790;BME280;37287;47.554;7.844;2023-04-30T05:01:40;97927.31;;;10.37;100.00
50790;BME280;37287;47.554;7.844;2023-04-30T05:04:07;97918.88;;;10.45;100.00
50790;BME280;37287;47.554;7.844;2023-04-30T05:06:35;97921.25;;;10.51;100.00
50790;BME280;37287;47.554;7.844;2023-04-30T05:09:03;97917.47;;;10.62;100.00
50790;BME280;37287;47.554;7.844;2023-04-30T05:11:34;97923.75;;;10.74;100.00
50790;BME280;37287;47.554;7.844;2023-04-30T05:14:01;97922.25;;;10.80;100.00
50790;BME280;37287;47.554;7.844;2023-04-30T05:16:29;97927.22;;;11.30;100.00
50790;BME280;37287;47.554;7.844;2023-04-30T05:18:56;97926.31;;;11.92;100.00
50790;BME280;37287;47.554;7.844;2023-04-30T05:21:22;97926.75;;;11.98;100.00
50790;BME280;37287;47.554;7.844;2023-04-30T05:23:51;97931.09;;;12.20;100.00
50790;BME280;37287;47.554;7.844;2023-04-30T05:26:17;97922.94;;;12.35;100.00
50790;BME280;37287;47.554;7.844;2023-04-30T05:28:44;97934.59;;;12.75;100.00
50790;BME280;37287;47.554;7.844;2023-04-30T05:31:11;97919.81;;;13.19;100.00
50790;BME280;37287;47.554;7.844;2023-04-30T05:33:37;97920.97;;;13.25;99.64
50790;BME280;37287;47.554;7.844;2023-04-30T05:36:06;97921.81;;;14.15;96.95
50790;BME280;37287;47.554;7.844;2023-04-30T05:38:32;97920.16;;;14.84;91.88
50790;BME280;37287;47.554;7.844;2023-04-30T05:40:59;97920.53;;;14.86;89.91
50790;BME280;37287;47.554;7.844;2023-04-30T05:43:26;97922.88;;;14.88;91.59
50790;BME280;37287;47.554;7.844;2023-04-30T05:45:52;97925.53;;;14.39;91.57
50790;BME280;37287;47.554;7.844;2023-04-30T05:48:19;97926.00;;;14.86;92.47
50790;BME280;37287;47.554;7.844;2023-04-30T05:50:46;97913.31;;;14.61;92.46
50790;BME280;37287;47.554;7.844;2023-04-30T05:53:14;97919.38;;;14.27;92.85
50790;BME280;37287;47.554;7.844;2023-04-30T05:55:41;97916.44;;;13.97;94.55
50790;BME280;37287;47.554;7.844;2023-04-30T05:58:07;97915.75;;;13.82;94.99
50790;BME280;37287;47.554;7.844;2023-04-30T06:00:35;97915.03;;;13.67;96.93
50790;BME280;37287;47.554;7.844;2023-04-30T06:03:02;97919.41;;;13.43;97.81
50790;BME280;37287;47.554;7.844;2023-04-30T06:05:29;97917.47;;;13.29;99.62
50790;BME280;37287;47.554;7.844;2023-04-30T06:07:56;97922.91;;;13.25;100.00
50790;BME280;37287;47.554;7.844;2023-04-30T06:10:23;97926.81;;;13.13;100.00
50790;BME280;37287;47.554;7.844;2023-04-30T06:12:49;97916.75;;;12.99;100.00
50790;BME280;37287;47.554;7.844;2023-04-30T06:15:18;97919.84;;;12.98;100.00
50790;BME280;37287;47.554;7.844;2023-04-30T06:17:45;97912.84;;;13.00;100.00
50790;BME280;37287;47.554;7.844;2023-04-30T06:20:11;97908.22;;;12.97;100.00
50790;BME280;37287;47.554;7.844;2023-04-30T06:22:39;97906.63;;;13.07;100.00
50790;BME280;37287;47.554;7.844;2023-04-30T06:25:07;97908.19;;;13.15;100.00
50790;BME280;37287;47.554;7.844;2023-04-30T06:27:58;97904.25;;;13.27;100.00
50790;BME280;37287;47.554;7.844;2023-04-30T06:30:24;97912.00;;;13.47;98.95
50790;BME280;37287;47.554;7.844;2023-04-30T06:32:51;97907.31;;;13.58;96.59
50790;BME280;37287;47.554;7.844;2023-04-30T06:35:18;97905.72;;;13.64;96.17
50790;BME280;37287;47.554;7.844;2023-04-30T06:37:44;97899.00;;;13.90;95.52
50790;BME280;37287;47.554;7.844;2023-04-30T06:40:12;97903.94;;;14.10;93.69
50790;BME280;37287;47.554;7.844;2023-04-30T06:42:38;97905.81;;;14.24;92.92
50790;BME280;37287;47.554;7.844;2023-04-30T06:45:06;97895.56;;;14.42;90.49
50790;BME280;37287;47.554;7.844;2023-04-30T06:47:33;97899.06;;;14.43;88.22
50790;BME280;37287;47.554;7.844;2023-04-30T06:50:00;97902.81;;;14.60;87.97
50790;BME280;37287;47.554;7.844;2023-04-30T06:52:33;97898.59;;;14.52;87.66
50790;BME280;37287;47.554;7.844;2023-04-30T06:55:00;97899.97;;;14.22;86.79
50790;BME280;37287;47.554;7.844;2023-04-30T06:57:27;97896.88;;;14.20;86.57
50790;BME280;37287;47.554;7.844;2023-04-30T06:59:54;97908.59;;;14.13;84.21
50790;BME280;37287;47.554;7.844;2023-04-30T07:02:21;97909.44;;;14.03;82.34
50790;BME280;37287;47.554;7.844;2023-04-30T07:05:11;97903.94;;;14.06;80.76
50790;BME280;37287;47.554;7.844;2023-04-30T07:07:45;97907.53;;;13.96;76.95
50790;BME280;37287;47.554;7.844;2023-04-30T07:10:12;97898.84;;;14.16;81.83
50790;BME280;37287;47.554;7.844;2023-04-30T07:12:38;97898.41;;;14.28;78.70
50790;BME280;37287;47.554;7.844;2023-04-30T07:15:07;97894.16;;;14.16;76.38
50790;BME280;37287;47.554;7.844;2023-04-30T07:17:34;97899.66;;;14.13;79.14
50790;BME280;37287;47.554;7.844;2023-04-30T07:20:00;97893.81;;;14.10;74.55
50790;BME280;37287;47.554;7.844;2023-04-30T07:22:27;97893.72;;;14.28;74.63
50790;BME280;37287;47.554;7.844;2023-04-30T07:24:54;97899.09;;;14.39;75.10
50790;BME280;37287;47.554;7.844;2023-04-30T07:27:21;97896.03;;;14.26;73.32
50790;BME280;37287;47.554;7.844;2023-04-30T07:29:53;97905.03;;;14.23;74.07
50790;BME280;37287;47.554;7.844;2023-04-30T07:32:21;97903.50;;;14.22;74.53
50790;BME280;37287;47.554;7.844;2023-04-30T07:34:48;97903.09;;;14.24;76.09
50790;BME280;37287;47.554;7.844;2023-04-30T07:37:14;97906.94;;;14.26;73.10
50790;BME280;37287;47.554;7.844;2023-04-30T07:39:41;97915.50;;;14.32;76.04
50790;BME280;37287;47.554;7.844;2023-04-30T07:42:07;97907.69;;;14.31;74.56
50790;BME280;37287;47.554;7.844;2023-04-30T07:44:36;97904.25;;;14.23;75.11
50790;BME280;37287;47.554;7.844;2023-04-30T07:47:03;97903.56;;;14.08;74.61
50790;BME280;37287;47.554;7.844;2023-04-30T07:49:30;97910.97;;;14.07;76.73
50790;BME280;37287;47.554;7.844;2023-04-30T07:51:57;97909.44;;;13.99;76.53
50790;BME280;37287;47.554;7.844;2023-04-30T07:54:24;97912.59;;;13.94;76.41
50790;BME280;37287;47.554;7.844;2023-04-30T07:56:52;97915.31;;;13.94;77.39
50790;BME280;37287;47.554;7.844;2023-04-30T07:59:23;97921.53;;;13.95;76.27
50790;BME280;37287;47.554;7.844;2023-04-30T08:01:50;97916.88;;;13.91;77.18
50790;BME280;37287;47.554;7.844;2023-04-30T08:04:17;97918.03;;;13.90;78.45
50790;BME280;37287;47.554;7.844;2023-04-30T08:06:45;97920.69;;;14.05;77.50
50790;BME280;37287;47.554;7.844;2023-04-30T08:09:13;97929.25;;;14.03;74.25
50790;BME280;37287;47.554;7.844;2023-04-30T08:11:41;97923.50;;;13.90;75.75
50790;BME280;37287;47.554;7.844;2023-04-30T08:14:09;97925.00;;;13.99;76.56
50790;BME280;37287;47.554;7.844;2023-04-30T08:16:36;97917.19;;;14.04;78.25
50790;BME280;37287;47.554;7.844;2023-04-30T08:19:02;97924.16;;;14.13;75.89
50790;BME280;37287;47.554;7.844;2023-04-30T08:21:35;97933.88;;;14.10;75.63
50790;BME280;37287;47.554;7.844;2023-04-30T08:24:02;97921.09;;;14.03;75.51
50790;BME280;37287;47.554;7.844;2023-04-30T08:26:29;97923.00;;;14.10;73.99
50790;BME280;37287;47.554;7.844;2023-04-30T08:28:56;97922.47;;;14.33;76.33
50790;BME280;37287;47.554;7.844;2023-04-30T08:31:23;97915.31;;;14.54;74.16
50790;BME280;37287;47.554;7.844;2023-04-30T08:33:49;97917.56;;;14.70;73.12
50790;BME280;37287;47.554;7.844;2023-04-30T08:36:17;97912.38;;;14.86;74.21
50790;BME280;37287;47.554;7.844;2023-04-30T08:38:44;97919.56;;;15.07;74.66
50790;BME280;37287;47.554;7.844;2023-04-30T08:41:12;97921.06;;;15.12;71.97
50790;BME280;37287;47.554;7.844;2023-04-30T08:43:42;97918.34;;;15.50;73.36
50790;BME280;37287;47.554;7.844;2023-04-30T08:46:13;97908.06;;;15.61;70.25
50790;BME280;37287;47.554;7.844;2023-04-30T08:48:40;97912.03;;;15.57;70.34
50790;BME280;37287;47.554;7.844;2023-04-30T08:51:07;97914.34;;;15.58;71.72
50790;BME280;37287;47.554;7.844;2023-04-30T08:53:57;97905.69;;;15.63;69.52
50790;BME280;37287;47.554;7.844;2023-04-30T08:56:24;97906.16;;;15.58;68.28
50790;BME280;37287;47.554;7.844;2023-04-30T08:58:51;97910.97;;;15.47;72.12
50790;BME280;37287;47.554;7.844;2023-04-30T09:01:18;97913.06;;;15.36;73.13
50790;BME280;37287;47.554;7.844;2023-04-30T09:03:48;97902.31;;;15.21;72.04
50790;BME280;37287;47.554;7.844;2023-04-30T09:06:16;97892.91;;;15.22;73.98
50790;BME280;37287;47.554;7.844;2023-04-30T09:08:48;97896.78;;;15.25;71.99
50790;BME280;37287;47.554;7.844;2023-04-30T09:11:27;97896.91;;;15.14;72.02
50790;BME280;37287;47.554;7.844;2023-04-30T09:13:55;97905.06;;;15.14;72.33
50790;BME280;37287;47.554;7.844;2023-04-30T09:16:23;97893.16;;;15.01;71.41
50790;BME280;37287;47.554;7.844;2023-04-30T09:18:51;97895.44;;;15.06;74.09
50790;BME280;37287;47.554;7.844;2023-04-30T09:21:35;97893.47;;;15.10;72.11
50790;BME280;37287;47.554;7.844;2023-04-30T09:24:04;97905.06;;;15.18;72.75
50790;BME280;37287;47.554;7.844;2023-04-30T09:26:33;97889.13;;;15.12;73.85
50790;BME280;37287;47.554;7.844;2023-04-30T09:29:02;97900.03;;;15.12;73.81
50790;BME280;37287;47.554;7.844;2023-04-30T09:31:41;97896.19;;;15.10;73.09
50790;BME280;37287;47.554;7.844;2023-04-30T09:34:08;97893.88;;;15.05;72.57
50790;BME280;37287;47.554;7.844;2023-04-30T09:36:35;97888.72;;;15.14;72.88
50790;BME280;37287;47.554;7.844;2023-04-30T09:39:08;97893.84;;;15.08;71.72
50790;BME280;37287;47.554;7.844;2023-04-30T09:41:41;97883.91;;;15.25;72.83
50790;BME280;37287;47.554;7.844;2023-04-30T09:44:35;97887.72;;;15.35;70.88
50790;BME280;37287;47.554;7.844;2023-04-30T09:47:02;97892.34;;;15.73;69.82
50790;BME280;37287;47.554;7.844;2023-04-30T09:49:29;97889.53;;;15.80;69.79
50790;BME280;37287;47.554;7.844;2023-04-30T09:51:59;97896.47;;;16.15;67.35
50790;BME280;37287;47.554;7.844;2023-04-30T09:54:28;97895.50;;;16.29;67.85
50790;BME280;37287;47.554;7.844;2023-04-30T09:56:58;97885.63;;;16.36;67.58
50790;BME280;37287;47.554;7.844;2023-04-30T09:59:34;97870.97;;;16.49;66.30
50790;BME280;37287;47.554;7.844;2023-04-30T10:02:06;97883.53;;;16.71;63.39
50790;BME280;37287;47.554;7.844;2023-04-30T10:04:41;97879.72;;;16.64;63.44
50790;BME280;37287;47.554;7.844;2023-04-30T10:07:11;97879.47;;;16.79;63.87
50790;BME280;37287;47.554;7.844;2023-04-30T10:09:56;97879.53;;;16.99;64.53
50790;BME280;37287;47.554;7.844;2023-04-30T10:12:32;97874.72;;;17.07;61.72
50790;BME280;37287;47.554;7.844;2023-04-30T10:15:12;97866.44;;;17.30;64.60
50790;BME280;37287;47.554;7.844;2023-04-30T10:17:40;97862.72;;;17.61;64.15
50790;BME280;37287;47.554;7.844;2023-04-30T10:20:11;97863.88;;;17.43;62.28
50790;BME280;37287;47.554;7.844;2023-04-30T10:22:38;97864.78;;;17.36;60.50
50790;BME280;37287;47.554;7.844;2023-04-30T10:25:07;97853.34;;;17.22;61.90
50790;BME280;37287;47.554;7.844;2023-04-30T10:27:36;97859.19;;;17.24;63.02
50790;BME280;37287;47.554;7.844;2023-04-30T10:30:05;97860.78;;;17.21;62.88
50790;BME280;37287;47.554;7.844;2023-04-30T10:32:45;97858.19;;;17.34;59.47
50790;BME280;37287;47.554;7.844;2023-04-30T10:35:18;97859.09;;;17.27;60.19
50790;BME280;37287;47.554;7.844;2023-04-30T10:37:50;97844.50;;;17.34;60.81
50790;BME280;37287;47.554;7.844;2023-04-30T10:40:19;97850.22;;;17.60;61.05
50790;BME280;37287;47.554;7.844;2023-04-30T10:42:47;97844.00;;;17.76;58.51
50790;BME280;37287;47.554;7.844;2023-04-30T10:45:17;97845.69;;;17.90;58.59
50790;BME280;37287;47.554;7.844;2023-04-30T10:47:46;97838.97;;;17.74;58.23
50790;BME280;37287;47.554;7.844;2023-04-30T10:50:13;97835.63;;;17.66;59.54
50790;BME280;37287;47.554;7.844;2023-04-30T10:52:40;97842.41;;;18.15;58.75
50790;BME280;37287;47.554;7.844;2023-04-30T10:55:07;97834.19;;;18.15;55.84
50790;BME280;37287;47.554;7.844;2023-04-30T10:57:41;97833.50;;;18.11;58.17
50790;BME280;37287;47.554;7.844;2023-04-30T11:00:19;97816.53;;;18.49;57.80
50790;BME280;37287;47.554;7.844;2023-04-30T11:02:46;97828.47;;;18.26;57.73
50790;BME280;37287;47.554;7.844;2023-04-30T11:05:18;97826.50;;;18.10;59.01
50790;BME280;37287;47.554;7.844;2023-04-30T11:07:46;97825.94;;;17.98;56.40
50790;BME280;37287;47.554;7.844;2023-04-30T11:10:21;97830.53;;;17.85;58.29
50790;BME280;37287;47.554;7.844;2023-04-30T11:12:51;97823.00;;;17.89;58.89
50790;BME280;37287;47.554;7.844;2023-04-30T11:15:40;97821.88;;;17.86;57.27
50790;BME280;37287;47.554;7.844;2023-04-30T11:18:07;97820.59;;;17.75;55.79
50790;BME280;37287;47.554;7.844;2023-04-30T11:20:48;97829.03;;;18.00;56.96
50790;BME280;37287;47.554;7.844;2023-04-30T11:23:22;97811.41;;;18.18;56.16
50790;BME280;37287;47.554;7.844;2023-04-30T11:26:06;97813.63;;;18.23;57.09
50790;BME280;37287;47.554;7.844;2023-04-30T11:28:32;97819.72;;;18.14;55.97
50790;BME280;37287;47.554;7.844;2023-04-30T11:31:01;97820.72;;;18.04;58.18
50790;BME280;37287;47.554;7.844;2023-04-30T11:33:29;97812.41;;;18.41;56.92
50790;BME280;37287;47.554;7.844;2023-04-30T11:35:59;97813.97;;;18.09;56.02
50790;BME280;37287;47.554;7.844;2023-04-30T11:38:33;97816.25;;;17.77;55.40
50790;BME280;37287;47.554;7.844;2023-04-30T11:41:02;97818.78;;;17.68;54.92
50790;BME280;37287;47.554;7.844;2023-04-30T11:43:31;97804.31;;;17.84;56.76
50790;BME280;37287;47.554;7.844;2023-04-30T11:46:09;97796.69;;;18.12;56.42
50790;BME280;37287;47.554;7.844;2023-04-30T11:48:38;97785.03;;;18.24;56.99
50790;BME280;37287;47.554;7.844;2023-04-30T11:51:23;97795.81;;;18.31;55.13
50790;BME280;37287;47.554;7.844;2023-04-30T11:53:52;97801.28;;;18.48;55.64
50790;BME280;37287;47.554;7.844;2023-04-30T11:56:23;97791.03;;;18.35;54.26
50790;BME280;37287;47.554;7.844;2023-04-30T11:58:52;97789.72;;;18.56;54.47
50790;BME280;37287;47.554;7.844;2023-04-30T12:01:21;97794.75;;;18.58;53.24
50790;BME280;37287;47.554;7.844;2023-04-30T12:03:50;97788.06;;;18.59;54.44
50790;BME280;37287;47.554;7.844;2023-04-30T12:06:26;97793.28;;;18.53;54.03
50790;BME280;37287;47.554;7.844;2023-04-30T12:08:58;97784.94;;;18.44;52.84
50790;BME280;37287;47.554;7.844;2023-04-30T12:11:28;97791.16;;;18.45;52.90
50790;BME280;37287;47.554;7.844;2023-04-30T12:14:06;97780.13;;;18.32;54.04
50790;BME280;37287;47.554;7.844;2023-04-30T12:16:45;97782.25;;;18.41;53.31
50790;BME280;37287;47.554;7.844;2023-04-30T12:19:19;97770.41;;;18.60;54.38
50790;BME280;37287;47.554;7.844;2023-04-30T12:21:48;97775.22;;;18.56;52.23
50790;BME280;37287;47.554;7.844;2023-04-30T12:24:16;97784.94;;;18.28;51.44
50790;BME280;37287;47.554;7.844;2023-04-30T12:26:44;97776.47;;;18.22;54.17
50790;BME280;37287;47.554;7.844;2023-04-30T12:29:16;97790.09;;;18.26;52.88
50790;BME280;37287;47.554;7.844;2023-04-30T12:31:44;97784.88;;;18.31;54.85
50790;BME280;37287;47.554;7.844;2023-04-30T12:34:13;97782.41;;;18.66;55.27
50790;BME280;37287;47.554;7.844;2023-04-30T12:36:46;97781.25;;;18.51;54.62
50790;BME280;37287;47.554;7.844;2023-04-30T12:39:14;97782.56;;;18.30;53.61
50790;BME280;37287;47.554;7.844;2023-04-30T12:41:46;97774.72;;;18.45;54.78
50790;BME280;37287;47.554;7.844;2023-04-30T12:44:25;97777.88;;;18.60;54.34
50790;BME280;37287;47.554;7.844;2023-04-30T12:46:54;97778.75;;;18.40;53.46
50790;BME280;37287;47.554;7.844;2023-04-30T12:49:32;97783.97;;;18.51;53.80
50790;BME280;37287;47.554;7.844;2023-04-30T12:52:02;97774.97;;;18.50;53.75
50790;BME280;37287;47.554;7.844;2023-04-30T12:54:30;97784.56;;;18.59;54.65
50790;BME280;37287;47.554;7.844;2023-04-30T12:59:27;97785.50;;;18.52;54.24
50790;BME280;37287;47.554;7.844;2023-04-30T13:04:35;97786.31;;;18.36;54.55
50790;BME280;37287;47.554;7.844;2023-04-30T13:07:04;97782.13;;;18.31;54.04
50790;BME280;37287;47.554;7.844;2023-04-30T13:09:35;97784.53;;;18.13;54.43
50790;BME280;37287;47.554;7.844;2023-04-30T13:12:03;97787.09;;;18.03;54.42
50790;BME280;37287;47.554;7.844;2023-04-30T13:14:30;97784.22;;;17.74;52.90
50790;BME280;37287;47.554;7.844;2023-04-30T13:16:57;97778.41;;;17.72;55.21
50790;BME280;37287;47.554;7.844;2023-04-30T13:19:24;97781.81;;;17.76;55.01
50790;BME280;37287;47.554;7.844;2023-04-30T13:21:53;97769.53;;;17.84;55.84
50790;BME280;37287;47.554;7.844;2023-04-30T13:24:20;97775.44;;;17.99;55.67
50790;BME280;37287;47.554;7.844;2023-04-30T13:26:47;97773.91;;;18.15;55.46
50790;BME280;37287;47.554;7.844;2023-04-30T13:29:14;97773.91;;;18.15;54.53
50790;BME280;37287;47.554;7.844;2023-04-30T13:31:40;97760.38;;;18.24;55.17